sensor_id;sensor_type;location;lat;lon;timestamp;pressure;altitude;pressure_sealevel;temperature;humidity
49122;BME280;35529;44.342;25.944;2022-08-19T00:01:26;100243.53;;;22.94;100.00
49122;BME280;35529;44.342;25.944;2022-08-19T00:03:52;100244.91;;;22.91;100.00
49122;BME280;35529;44.342;25.944;2022-08-19T00:06:18;100248.97;;;22.89;100.00
49122;BME280;35529;44.342;25.944;2022-08-19T00:08:45;100249.56;;;22.86;100.00
49122;BME280;35529;44.342;25.944;2022-08-19T00:11:11;100255.56;;;22.83;100.00
49122;BME280;35529;44.342;25.944;2022-08-19T00:13:37;100255.41;;;22.64;98.94
49122;BME280;35529;44.342;25.944;2022-08-19T00:16:04;100257.03;;;22.65;99.44
49122;BME280;35529;44.342;25.944;2022-08-19T00:18:31;100262.72;;;22.63;100.00
49122;BME280;35529;44.342;25.944;2022-08-19T00:20:58;100264.97;;;22.56;100.00
49122;BME280;35529;44.342;25.944;2022-08-19T00:23:25;100276.59;;;22.56;100.00
49122;BME280;35529;44.342;25.944;2022-08-19T00:25:51;100269.31;;;22.52;100.00
49122;BME280;35529;44.342;25.944;2022-08-19T00:28:18;100267.25;;;22.38;100.00
49122;BME280;35529;44.342;25.944;2022-08-19T00:30:44;100263.53;;;22.24;96.31
49122;BME280;35529;44.342;25.944;2022-08-19T00:33:10;100261.63;;;22.24;99.13
49122;BME280;35529;44.342;25.944;2022-08-19T00:35:36;100258.94;;;22.19;100.00
49122;BME280;35529;44.342;25.944;2022-08-19T00:38:04;100264.75;;;21.97;93.25
49122;BME280;35529;44.342;25.944;2022-08-19T00:40:32;100262.66;;;21.84;91.58
49122;BME280;35529;44.342;25.944;2022-08-19T00:42:58;100260.81;;;21.69;91.79
49122;BME280;35529;44.342;25.944;2022-08-19T00:45:26;100261.13;;;21.62;94.42
49122;BME280;35529;44.342;25.944;2022-08-19T00:47:52;100259.78;;;21.49;93.35
49122;BME280;35529;44.342;25.944;2022-08-19T00:50:18;100274.63;;;21.41;93.46
49122;BME280;35529;44.342;25.944;2022-08-19T00:52:47;100267.09;;;21.38;97.23
49122;BME280;35529;44.342;25.944;2022-08-19T00:55:16;100262.78;;;21.27;93.90
49122;BME280;35529;44.342;25.944;2022-08-19T00:57:46;100266.88;;;21.24;94.26
49122;BME280;35529;44.342;25.944;2022-08-19T01:00:15;100263.34;;;21.24;94.81
49122;BME280;35529;44.342;25.944;2022-08-19T01:02:43;100263.34;;;21.19;93.77
49122;BME280;35529;44.342;25.944;2022-08-19T01:05:11;100264.69;;;21.16;93.96
49122;BME280;35529;44.342;25.944;2022-08-19T01:07:39;100267.94;;;21.08;94.49
49122;BME280;35529;44.342;25.944;2022-08-19T01:10:08;100258.78;;;21.04;94.99
49122;BME280;35529;44.342;25.944;2022-08-19T01:12:34;100263.91;;;21.16;100.00
49122;BME280;35529;44.342;25.944;2022-08-19T01:15:00;100262.81;;;21.22;100.00
49122;BME280;35529;44.342;25.944;2022-08-19T01:17:27;100262.00;;;21.21;100.00
49122;BME280;35529;44.342;25.944;2022-08-19T01:19:53;100263.06;;;21.31;100.00
49122;BME280;35529;44.342;25.944;2022-08-19T01:22:43;100269.00;;;21.33;100.00
49122;BME280;35529;44.342;25.944;2022-08-19T01:25:06;100267.38;;;21.32;100.00
49122;BME280;35529;44.342;25.944;2022-08-19T01:27:39;100264.13;;;21.30;100.00
49122;BME280;35529;44.342;25.944;2022-08-19T01:30:07;100275.75;;;21.30;100.00
49122;BME280;35529;44.342;25.944;2022-08-19T01:32:34;100267.66;;;21.35;100.00
49122;BME280;35529;44.342;25.944;2022-08-19T01:35:01;100271.44;;;21.29;100.00
49122;BME280;35529;44.342;25.944;2022-08-19T01:37:27;100263.84;;;21.36;100.00
49122;BME280;35529;44.342;25.944;2022-08-19T01:39:53;100276.28;;;21.37;100.00
49122;BME280;35529;44.342;25.944;2022-08-19T01:42:19;100276.81;;;21.39;100.00
49122;BME280;35529;44.342;25.944;2022-08-19T01:44:47;100278.47;;;21.25;97.68
49122;BME280;35529;44.342;25.944;2022-08-19T01:47:14;100279.03;;;21.17;98.69
49122;BME280;35529;44.342;25.944;2022-08-19T01:49:40;100286.28;;;21.21;100.00
49122;BME280;35529;44.342;25.944;2022-08-19T01:52:06;100283.34;;;21.18;100.00
49122;BME280;35529;44.342;25.944;2022-08-19T01:54:32;100284.16;;;21.18;100.00
49122;BME280;35529;44.342;25.944;2022-08-19T01:57:08;100291.69;;;21.16;100.00
49122;BME280;35529;44.342;25.944;2022-08-19T01:59:37;100294.66;;;21.04;100.00
49122;BME280;35529;44.342;25.944;2022-08-19T02:02:04;100289.53;;;21.03;100.00
49122;BME280;35529;44.342;25.944;2022-08-19T02:04:33;100292.78;;;21.00;100.00
49122;BME280;35529;44.342;25.944;2022-08-19T02:07:00;100296.59;;;20.88;100.00
49122;BME280;35529;44.342;25.944;2022-08-19T02:09:26;100293.63;;;20.90;100.00
49122;BME280;35529;44.342;25.944;2022-08-19T02:11:52;100291.19;;;20.78;99.67
49122;BME280;35529;44.342;25.944;2022-08-19T02:14:19;100288.19;;;20.74;98.11
49122;BME280;35529;44.342;25.944;2022-08-19T02:16:45;100287.13;;;20.86;100.00
49122;BME280;35529;44.342;25.944;2022-08-19T02:19:11;100299.28;;;20.88;100.00
49122;BME280;35529;44.342;25.944;2022-08-19T02:21:37;100286.03;;;20.92;100.00
49122;BME280;35529;44.342;25.944;2022-08-19T02:24:03;100283.63;;;20.96;100.00
49122;BME280;35529;44.342;25.944;2022-08-19T02:26:29;100290.63;;;20.91;99.89
49122;BME280;35529;44.342;25.944;2022-08-19T02:28:56;100291.72;;;20.90;98.53
49122;BME280;35529;44.342;25.944;2022-08-19T02:31:23;100289.81;;;21.01;100.00
49122;BME280;35529;44.342;25.944;2022-08-19T02:33:49;100284.69;;;20.95;100.00
49122;BME280;35529;44.342;25.944;2022-08-19T02:36:16;100294.97;;;20.87;100.00
49122;BME280;35529;44.342;25.944;2022-08-19T02:38:42;100291.19;;;20.78;98.92
49122;BME280;35529;44.342;25.944;2022-08-19T02:41:16;100286.84;;;20.77;99.04
49122;BME280;35529;44.342;25.944;2022-08-19T02:43:42;100294.97;;;20.87;100.00
49122;BME280;35529;44.342;25.944;2022-08-19T02:46:41;100297.13;;;20.90;100.00
49122;BME280;35529;44.342;25.944;2022-08-19T02:49:05;100292.50;;;20.96;100.00
49122;BME280;35529;44.342;25.944;2022-08-19T02:51:33;100295.50;;;21.00;100.00
49122;BME280;35529;44.342;25.944;2022-08-19T02:54:00;100289.03;;;21.01;100.00
49122;BME280;35529;44.342;25.944;2022-08-19T02:56:26;100296.28;;;21.00;100.00
49122;BME280;35529;44.342;25.944;2022-08-19T02:58:56;100291.72;;;21.01;100.00
49122;BME280;35529;44.342;25.944;2022-08-19T03:01:24;100294.94;;;21.03;100.00
49122;BME280;35529;44.342;25.944;2022-08-19T03:03:51;100302.25;;;20.92;100.00
49122;BME280;35529;44.342;25.944;2022-08-19T03:06:17;100298.19;;;20.95;100.00
49122;BME280;35529;44.342;25.944;2022-08-19T03:08:44;100300.88;;;20.89;99.46
49122;BME280;35529;44.342;25.944;2022-08-19T03:11:21;100299.56;;;20.82;97.18
49122;BME280;35529;44.342;25.944;2022-08-19T03:13:48;100300.63;;;20.81;99.84
49122;BME280;35529;44.342;25.944;2022-08-19T03:16:17;100298.72;;;20.81;100.00
49122;BME280;35529;44.342;25.944;2022-08-19T03:18:44;100304.09;;;20.71;100.00
49122;BME280;35529;44.342;25.944;2022-08-19T03:21:14;100303.31;;;20.75;100.00
49122;BME280;35529;44.342;25.944;2022-08-19T03:23:40;100307.09;;;20.74;100.00
49122;BME280;35529;44.342;25.944;2022-08-19T03:26:06;100307.03;;;20.64;100.00
49122;BME280;35529;44.342;25.944;2022-08-19T03:28:32;100302.72;;;20.53;100.00
49122;BME280;35529;44.342;25.944;2022-08-19T03:31:03;100303.00;;;20.51;100.00
49122;BME280;35529;44.342;25.944;2022-08-19T03:33:31;100307.00;;;20.38;98.47
49122;BME280;35529;44.342;25.944;2022-08-19T03:36:01;100315.09;;;20.28;98.42
49122;BME280;35529;44.342;25.944;2022-08-19T03:38:27;100307.53;;;20.35;100.00
49122;BME280;35529;44.342;25.944;2022-08-19T03:40:54;100309.97;;;20.37;100.00
49122;BME280;35529;44.342;25.944;2022-08-19T03:43:20;100312.69;;;20.47;100.00
49122;BME280;35529;44.342;25.944;2022-08-19T03:45:46;100320.78;;;20.57;100.00
49122;BME280;35529;44.342;25.944;2022-08-19T03:48:14;100316.75;;;20.60;100.00
49122;BME280;35529;44.342;25.944;2022-08-19T03:50:42;100322.19;;;20.70;100.00
49122;BME280;35529;44.342;25.944;2022-08-19T03:53:08;100321.13;;;20.76;100.00
49122;BME280;35529;44.342;25.944;2022-08-19T03:55:39;100322.22;;;20.86;99.28
49122;BME280;35529;44.342;25.944;2022-08-19T03:58:05;100322.47;;;20.95;100.00
49122;BME280;35529;44.342;25.944;2022-08-19T04:00:32;100320.88;;;21.09;100.00
49122;BME280;35529;44.342;25.944;2022-08-19T04:02:59;100334.09;;;21.10;100.00
49122;BME280;35529;44.342;25.944;2022-08-19T04:05:26;100328.16;;;21.08;100.00
49122;BME280;35529;44.342;25.944;2022-08-19T04:07:54;100333.00;;;21.06;97.32
49122;BME280;35529;44.342;25.944;2022-08-19T04:10:22;100323.56;;;21.09;97.17
49122;BME280;35529;44.342;25.944;2022-08-19T04:12:49;100326.00;;;21.10;96.06
49122;BME280;35529;44.342;25.944;2022-08-19T04:15:15;100321.16;;;21.18;97.31
49122;BME280;35529;44.342;25.944;2022-08-19T04:17:42;100326.53;;;21.18;94.21
49122;BME280;35529;44.342;25.944;2022-08-19T04:20:08;100331.41;;;21.26;94.57
49122;BME280;35529;44.342;25.944;2022-08-19T04:22:34;100330.84;;;21.34;96.61
49122;BME280;35529;44.342;25.944;2022-08-19T04:25:00;100343.78;;;21.42;98.12
49122;BME280;35529;44.342;25.944;2022-08-19T04:27:26;100344.34;;;21.45;95.35
49122;BME280;35529;44.342;25.944;2022-08-19T04:29:52;100338.38;;;21.42;93.45
49122;BME280;35529;44.342;25.944;2022-08-19T04:32:19;100335.41;;;21.49;94.42
49122;BME280;35529;44.342;25.944;2022-08-19T04:34:45;100340.56;;;21.56;95.23
49122;BME280;35529;44.342;25.944;2022-08-19T04:37:11;100342.41;;;21.71;96.93
49122;BME280;35529;44.342;25.944;2022-08-19T04:39:38;100338.13;;;21.65;93.06
49122;BME280;35529;44.342;25.944;2022-08-19T04:42:22;100342.69;;;21.59;93.05
49122;BME280;35529;44.342;25.944;2022-08-19T04:45:08;100343.47;;;21.70;97.14
49122;BME280;35529;44.342;25.944;2022-08-19T04:47:38;100344.00;;;21.82;99.62
49122;BME280;35529;44.342;25.944;2022-08-19T04:50:05;100342.97;;;21.73;93.60
49122;BME280;35529;44.342;25.944;2022-08-19T04:52:31;100349.94;;;21.84;96.35
49122;BME280;35529;44.342;25.944;2022-08-19T04:54:58;100343.94;;;21.98;99.06
49122;BME280;35529;44.342;25.944;2022-08-19T04:57:24;100340.66;;;22.06;97.96
49122;BME280;35529;44.342;25.944;2022-08-19T04:59:53;100343.34;;;22.11;93.11
49122;BME280;35529;44.342;25.944;2022-08-19T05:02:19;100339.84;;;22.16;94.16
49122;BME280;35529;44.342;25.944;2022-08-19T05:04:46;100341.66;;;22.31;95.83
49122;BME280;35529;44.342;25.944;2022-08-19T05:07:12;100342.44;;;22.36;91.56
49122;BME280;35529;44.342;25.944;2022-08-19T05:09:38;100351.88;;;22.44;89.83
49122;BME280;35529;44.342;25.944;2022-08-19T05:12:04;100346.66;;;22.58;91.04
49122;BME280;35529;44.342;25.944;2022-08-19T05:14:31;100354.19;;;22.66;86.63
49122;BME280;35529;44.342;25.944;2022-08-19T05:16:57;100344.59;;;22.84;88.63
49122;BME280;35529;44.342;25.944;2022-08-19T05:19:23;100338.22;;;23.04;92.09
49122;BME280;35529;44.342;25.944;2022-08-19T05:22:08;100341.84;;;23.24;90.31
49122;BME280;35529;44.342;25.944;2022-08-19T05:24:53;100337.63;;;23.42;92.00
49122;BME280;35529;44.342;25.944;2022-08-19T05:27:19;100340.75;;;23.54;91.23
49122;BME280;35529;44.342;25.944;2022-08-19T05:29:45;100343.31;;;23.70;88.27
49122;BME280;35529;44.342;25.944;2022-08-19T05:32:11;100334.84;;;23.76;87.31
49122;BME280;35529;44.342;25.944;2022-08-19T05:34:37;100333.59;;;23.93;80.65
49122;BME280;35529;44.342;25.944;2022-08-19T05:37:04;100343.66;;;24.12;86.26
49122;BME280;35529;44.342;25.944;2022-08-19T05:39:32;100341.69;;;24.17;86.91
49122;BME280;35529;44.342;25.944;2022-08-19T05:42:06;100343.75;;;24.25;86.25
49122;BME280;35529;44.342;25.944;2022-08-19T05:44:33;100347.06;;;24.41;86.34
49122;BME280;35529;44.342;25.944;2022-08-19T05:47:01;100353.38;;;24.56;87.22
49122;BME280;35529;44.342;25.944;2022-08-19T05:49:28;100357.00;;;24.70;86.33
49122;BME280;35529;44.342;25.944;2022-08-19T05:51:55;100351.25;;;24.91;84.54
49122;BME280;35529;44.342;25.944;2022-08-19T05:54:21;100352.41;;;25.04;77.88
49122;BME280;35529;44.342;25.944;2022-08-19T05:56:49;100346.41;;;25.21;81.26
49122;BME280;35529;44.342;25.944;2022-08-19T05:59:16;100354.63;;;25.35;82.38
49122;BME280;35529;44.342;25.944;2022-08-19T06:01:43;100348.72;;;25.47;77.92
49122;BME280;35529;44.342;25.944;2022-08-19T06:04:10;100350.13;;;25.58;81.74
49122;BME280;35529;44.342;25.944;2022-08-19T06:06:36;100350.66;;;25.60;76.96
49122;BME280;35529;44.342;25.944;2022-08-19T06:09:03;100352.22;;;25.61;73.67
49122;BME280;35529;44.342;25.944;2022-08-19T06:11:34;100347.22;;;25.68;78.15
49122;BME280;35529;44.342;25.944;2022-08-19T06:14:03;100351.03;;;25.81;80.51
49122;BME280;35529;44.342;25.944;2022-08-19T06:16:29;100347.72;;;25.84;74.67
49122;BME280;35529;44.342;25.944;2022-08-19T06:18:58;100351.06;;;25.95;71.58
49122;BME280;35529;44.342;25.944;2022-08-19T06:21:26;100349.16;;;26.09;70.42
49122;BME280;35529;44.342;25.944;2022-08-19T06:23:53;100350.34;;;26.17;76.22
49122;BME280;35529;44.342;25.944;2022-08-19T06:26:20;100352.66;;;26.24;67.67
49122;BME280;35529;44.342;25.944;2022-08-19T06:28:47;100355.25;;;26.29;67.52
49122;BME280;35529;44.342;25.944;2022-08-19T06:31:14;100338.91;;;26.43;74.07
49122;BME280;35529;44.342;25.944;2022-08-19T06:33:44;100345.53;;;26.51;65.69
49122;BME280;35529;44.342;25.944;2022-08-19T06:36:27;100342.22;;;26.54;67.47
49122;BME280;35529;44.342;25.944;2022-08-19T06:38:56;100346.78;;;26.67;69.46
49122;BME280;35529;44.342;25.944;2022-08-19T06:41:25;100341.84;;;26.69;64.54
49122;BME280;35529;44.342;25.944;2022-08-19T06:43:51;100346.44;;;26.83;68.77
49122;BME280;35529;44.342;25.944;2022-08-19T06:46:18;100346.00;;;26.89;65.60
49122;BME280;35529;44.342;25.944;2022-08-19T06:48:45;100346.09;;;26.98;67.97
49122;BME280;35529;44.342;25.944;2022-08-19T06:51:15;100346.25;;;27.02;62.56
49122;BME280;35529;44.342;25.944;2022-08-19T06:53:45;100352.88;;;27.09;68.71
49122;BME280;35529;44.342;25.944;2022-08-19T06:56:13;100346.06;;;27.21;69.93
49122;BME280;35529;44.342;25.944;2022-08-19T06:58:40;100355.75;;;27.36;62.11
49122;BME280;35529;44.342;25.944;2022-08-19T07:01:06;100352.81;;;27.46;64.17
49122;BME280;35529;44.342;25.944;2022-08-19T07:03:34;100350.94;;;27.64;70.25
49122;BME280;35529;44.342;25.944;2022-08-19T07:06:04;100349.19;;;27.68;70.68
49122;BME280;35529;44.342;25.944;2022-08-19T07:08:30;100348.59;;;27.80;65.53
49122;BME280;35529;44.342;25.944;2022-08-19T07:10:56;100346.19;;;27.87;65.26
49122;BME280;35529;44.342;25.944;2022-08-19T07:13:22;100343.50;;;27.96;71.71
49122;BME280;35529;44.342;25.944;2022-08-19T07:15:49;100341.75;;;28.00;68.54
49122;BME280;35529;44.342;25.944;2022-08-19T07:18:19;100343.88;;;28.03;59.44
49122;BME280;35529;44.342;25.944;2022-08-19T07:20:46;100334.28;;;28.15;64.86
49122;BME280;35529;44.342;25.944;2022-08-19T07:23:12;100326.56;;;28.17;66.77
49122;BME280;35529;44.342;25.944;2022-08-19T07:25:38;100335.56;;;28.26;63.32
49122;BME280;35529;44.342;25.944;2022-08-19T07:28:05;100336.22;;;28.40;66.38
49122;BME280;35529;44.342;25.944;2022-08-19T07:30:35;100340.56;;;28.41;58.79
49122;BME280;35529;44.342;25.944;2022-08-19T07:33:01;100338.00;;;28.54;63.59
49122;BME280;35529;44.342;25.944;2022-08-19T07:35:27;100336.72;;;28.60;59.35
49122;BME280;35529;44.342;25.944;2022-08-19T07:37:54;100341.06;;;28.70;60.00
49122;BME280;35529;44.342;25.944;2022-08-19T07:40:20;100340.88;;;28.84;64.48
49122;BME280;35529;44.342;25.944;2022-08-19T07:42:46;100342.78;;;28.92;64.10
49122;BME280;35529;44.342;25.944;2022-08-19T07:45:12;100340.38;;;28.90;62.25
49122;BME280;35529;44.342;25.944;2022-08-19T07:47:38;100344.41;;;28.93;54.93
49122;BME280;35529;44.342;25.944;2022-08-19T07:50:07;100344.03;;;29.12;61.36
49122;BME280;35529;44.342;25.944;2022-08-19T07:52:34;100340.50;;;29.12;54.07
49122;BME280;35529;44.342;25.944;2022-08-19T07:55:01;100342.09;;;29.21;61.36
49122;BME280;35529;44.342;25.944;2022-08-19T07:57:29;100334.69;;;29.31;62.12
49122;BME280;35529;44.342;25.944;2022-08-19T07:59:55;100338.34;;;29.43;55.84
49122;BME280;35529;44.342;25.944;2022-08-19T08:02:21;100341.25;;;29.47;55.86
49122;BME280;35529;44.342;25.944;2022-08-19T08:04:48;100332.22;;;29.47;56.93
49122;BME280;35529;44.342;25.944;2022-08-19T08:07:32;100338.94;;;29.58;62.23
49122;BME280;35529;44.342;25.944;2022-08-19T08:10:17;100334.69;;;29.69;60.67
49122;BME280;35529;44.342;25.944;2022-08-19T08:12:43;100321.94;;;29.82;57.67
49122;BME280;35529;44.342;25.944;2022-08-19T08:15:12;100322.56;;;29.88;56.46
49122;BME280;35529;44.342;25.944;2022-08-19T08:17:42;100325.13;;;29.93;60.58
49122;BME280;35529;44.342;25.944;2022-08-19T08:20:09;100316.06;;;29.92;58.73
49122;BME280;35529;44.342;25.944;2022-08-19T08:22:35;100322.19;;;29.98;55.43
49122;BME280;35529;44.342;25.944;2022-08-19T08:25:21;100314.31;;;29.97;59.71
49122;BME280;35529;44.342;25.944;2022-08-19T08:27:48;100319.13;;;30.00;57.60
49122;BME280;35529;44.342;25.944;2022-08-19T08:30:18;100315.88;;;29.98;55.02
49122;BME280;35529;44.342;25.944;2022-08-19T08:32:45;100320.44;;;29.93;49.86
49122;BME280;35529;44.342;25.944;2022-08-19T08:35:12;100316.22;;;29.96;58.24
49122;BME280;35529;44.342;25.944;2022-08-19T08:37:41;100315.56;;;29.99;52.00
49122;BME280;35529;44.342;25.944;2022-08-19T08:42:40;100303.88;;;30.11;56.83
49122;BME280;35529;44.342;25.944;2022-08-19T08:45:13;100298.16;;;30.25;60.25
49122;BME280;35529;44.342;25.944;2022-08-19T08:47:41;100303.34;;;30.39;56.38
49122;BME280;35529;44.342;25.944;2022-08-19T08:50:17;100292.06;;;30.40;55.20
49122;BME280;35529;44.342;25.944;2022-08-19T08:52:45;100301.09;;;30.41;57.73
49122;BME280;35529;44.342;25.944;2022-08-19T08:55:14;100293.41;;;30.34;53.07
49122;BME280;35529;44.342;25.944;2022-08-19T09:00:21;100295.41;;;30.46;53.26
49122;BME280;35529;44.342;25.944;2022-08-19T09:02:48;100301.19;;;30.45;57.49
49122;BME280;35529;44.342;25.944;2022-08-19T09:05:14;100295.22;;;30.51;60.73
49122;BME280;35529;44.342;25.944;2022-08-19T09:10:43;100291.88;;;30.79;55.61
49122;BME280;35529;44.342;25.944;2022-08-19T09:15:58;100286.78;;;31.02;59.60
49122;BME280;35529;44.342;25.944;2022-08-19T09:18:38;100286.94;;;31.06;59.06
49122;BME280;35529;44.342;25.944;2022-08-19T09:21:04;100298.97;;;31.14;48.29
49122;BME280;35529;44.342;25.944;2022-08-19T09:23:30;100292.28;;;31.02;49.50
49122;BME280;35529;44.342;25.944;2022-08-19T09:25:56;100292.50;;;30.97;45.76
49122;BME280;35529;44.342;25.944;2022-08-19T09:28:22;100294.44;;;30.97;55.37
49122;BME280;35529;44.342;25.944;2022-08-19T09:30:48;100292.72;;;30.92;50.92
49122;BME280;35529;44.342;25.944;2022-08-19T09:33:16;100298.72;;;31.06;53.33
49122;BME280;35529;44.342;25.944;2022-08-19T09:35:43;100296.66;;;31.16;51.91
49122;BME280;35529;44.342;25.944;2022-08-19T09:38:09;100292.09;;;31.20;53.07
49122;BME280;35529;44.342;25.944;2022-08-19T09:40:35;100300.81;;;31.22;55.63
49122;BME280;35529;44.342;25.944;2022-08-19T09:43:01;100301.50;;;31.19;54.20
49122;BME280;35529;44.342;25.944;2022-08-19T09:45:28;100290.06;;;31.17;47.29
49122;BME280;35529;44.342;25.944;2022-08-19T09:47:54;100291.88;;;31.25;49.92
49122;BME280;35529;44.342;25.944;2022-08-19T09:50:22;100288.13;;;31.42;52.56
49122;BME280;35529;44.342;25.944;2022-08-19T09:52:48;100288.94;;;31.55;50.35
49122;BME280;35529;44.342;25.944;2022-08-19T09:55:15;100285.38;;;31.54;43.75
49122;BME280;35529;44.342;25.944;2022-08-19T09:57:43;100282.06;;;31.49;48.46
49122;BME280;35529;44.342;25.944;2022-08-19T10:00:09;100289.19;;;31.62;54.76
49122;BME280;35529;44.342;25.944;2022-08-19T10:02:36;100278.19;;;31.74;51.12
49122;BME280;35529;44.342;25.944;2022-08-19T10:05:02;100283.22;;;31.85;58.59
49122;BME280;35529;44.342;25.944;2022-08-19T10:07:47;100278.38;;;31.94;47.17
49122;BME280;35529;44.342;25.944;2022-08-19T10:10:13;100278.25;;;32.03;47.64
49122;BME280;35529;44.342;25.944;2022-08-19T10:12:39;100278.81;;;32.08;56.42
49122;BME280;35529;44.342;25.944;2022-08-19T10:15:05;100284.44;;;32.00;50.32
49122;BME280;35529;44.342;25.944;2022-08-19T10:17:32;100274.28;;;31.88;40.40
49122;BME280;35529;44.342;25.944;2022-08-19T10:19:59;100280.13;;;31.86;51.69
49122;BME280;35529;44.342;25.944;2022-08-19T10:22:25;100268.69;;;31.72;47.91
49122;BME280;35529;44.342;25.944;2022-08-19T10:24:51;100270.84;;;31.91;48.74
49122;BME280;35529;44.342;25.944;2022-08-19T10:27:18;100259.94;;;32.07;53.21
49122;BME280;35529;44.342;25.944;2022-08-19T10:29:46;100260.59;;;32.16;54.34
49122;BME280;35529;44.342;25.944;2022-08-19T10:32:13;100257.91;;;32.32;51.24
49122;BME280;35529;44.342;25.944;2022-08-19T10:34:39;100258.06;;;32.52;53.74
49122;BME280;35529;44.342;25.944;2022-08-19T10:37:06;100249.66;;;32.61;44.02
49122;BME280;35529;44.342;25.944;2022-08-19T10:39:33;100260.50;;;32.69;55.45
49122;BME280;35529;44.342;25.944;2022-08-19T10:42:05;100262.84;;;32.55;51.15
49122;BME280;35529;44.342;25.944;2022-08-19T10:44:32;100264.69;;;32.51;51.93
49122;BME280;35529;44.342;25.944;2022-08-19T10:47:01;100253.53;;;32.44;40.67
49122;BME280;35529;44.342;25.944;2022-08-19T10:49:27;100252.09;;;32.34;53.66
49122;BME280;35529;44.342;25.944;2022-08-19T10:51:53;100249.53;;;32.41;54.15
49122;BME280;35529;44.342;25.944;2022-08-19T10:54:58;100245.59;;;32.70;45.84
49122;BME280;35529;44.342;25.944;2022-08-19T10:57:43;100247.94;;;33.00;54.22
49122;BME280;35529;44.342;25.944;2022-08-19T11:00:09;100244.22;;;33.08;42.22
49122;BME280;35529;44.342;25.944;2022-08-19T11:02:35;100249.72;;;33.08;51.46
49122;BME280;35529;44.342;25.944;2022-08-19T11:05:02;100242.28;;;33.09;51.45
49122;BME280;35529;44.342;25.944;2022-08-19T11:07:28;100239.84;;;33.23;47.94
49122;BME280;35529;44.342;25.944;2022-08-19T11:09:57;100233.75;;;33.30;44.33
49122;BME280;35529;44.342;25.944;2022-08-19T11:12:23;100236.41;;;33.42;46.22
49122;BME280;35529;44.342;25.944;2022-08-19T11:14:50;100233.91;;;33.53;48.47
49122;BME280;35529;44.342;25.944;2022-08-19T11:17:16;100230.50;;;33.60;47.83
49122;BME280;35529;44.342;25.944;2022-08-19T11:19:42;100231.72;;;33.79;57.53
49122;BME280;35529;44.342;25.944;2022-08-19T11:22:08;100228.41;;;33.73;52.27
49122;BME280;35529;44.342;25.944;2022-08-19T11:24:35;100224.41;;;33.70;53.14
49122;BME280;35529;44.342;25.944;2022-08-19T11:27:05;100225.06;;;33.64;46.41
49122;BME280;35529;44.342;25.944;2022-08-19T11:29:33;100228.91;;;33.59;46.89
49122;BME280;35529;44.342;25.944;2022-08-19T11:32:00;100224.03;;;33.52;47.10
49122;BME280;35529;44.342;25.944;2022-08-19T11:34:29;100218.84;;;33.31;42.10
49122;BME280;35529;44.342;25.944;2022-08-19T11:36:57;100214.22;;;33.35;36.64
49122;BME280;35529;44.342;25.944;2022-08-19T11:39:25;100213.94;;;33.40;46.83
49122;BME280;35529;44.342;25.944;2022-08-19T11:41:52;100207.03;;;33.66;42.01
49122;BME280;35529;44.342;25.944;2022-08-19T11:44:18;100203.03;;;33.99;50.43
49122;BME280;35529;44.342;25.944;2022-08-19T11:46:45;100199.91;;;34.20;37.19
49122;BME280;35529;44.342;25.944;2022-08-19T11:49:12;100199.84;;;34.36;44.49
49122;BME280;35529;44.342;25.944;2022-08-19T11:51:38;100197.53;;;34.62;38.84
49122;BME280;35529;44.342;25.944;2022-08-19T11:54:05;100200.09;;;34.74;43.68
49122;BME280;35529;44.342;25.944;2022-08-19T11:56:31;100195.94;;;34.61;45.91
49122;BME280;35529;44.342;25.944;2022-08-19T11:58:57;100203.16;;;34.46;47.53
49122;BME280;35529;44.342;25.944;2022-08-19T12:01:24;100194.72;;;34.38;44.04
49122;BME280;35529;44.342;25.944;2022-08-19T12:03:52;100195.09;;;34.37;36.17
49122;BME280;35529;44.342;25.944;2022-08-19T12:06:20;100195.91;;;34.37;37.74
49122;BME280;35529;44.342;25.944;2022-08-19T12:08:49;100189.59;;;34.37;42.63
49122;BME280;35529;44.342;25.944;2022-08-19T12:11:15;100195.03;;;34.33;47.03
49122;BME280;35529;44.342;25.944;2022-08-19T12:13:41;100188.22;;;34.27;48.93
49122;BME280;35529;44.342;25.944;2022-08-19T12:16:10;100186.47;;;34.38;40.54
49122;BME280;35529;44.342;25.944;2022-08-19T12:18:38;100174.63;;;34.57;42.42
49122;BME280;35529;44.342;25.944;2022-08-19T12:21:07;100181.56;;;34.74;51.70
49122;BME280;35529;44.342;25.944;2022-08-19T12:23:33;100170.38;;;34.64;35.23
49122;BME280;35529;44.342;25.944;2022-08-19T12:25:59;100171.50;;;34.82;37.40
49122;BME280;35529;44.342;25.944;2022-08-19T12:28:26;100164.84;;;35.14;38.96
49122;BME280;35529;44.342;25.944;2022-08-19T12:30:52;100173.13;;;35.37;47.29
49122;BME280;35529;44.342;25.944;2022-08-19T12:33:18;100167.09;;;35.58;43.88
49122;BME280;35529;44.342;25.944;2022-08-19T12:35:49;100173.34;;;35.55;39.10
49122;BME280;35529;44.342;25.944;2022-08-19T12:38:16;100167.97;;;35.35;46.60
49122;BME280;35529;44.342;25.944;2022-08-19T12:40:44;100165.13;;;35.58;45.23
49122;BME280;35529;44.342;25.944;2022-08-19T12:43:11;100158.16;;;35.72;36.17
49122;BME280;35529;44.342;25.944;2022-08-19T12:45:39;100159.38;;;35.74;35.93
49122;BME280;35529;44.342;25.944;2022-08-19T12:48:05;100164.47;;;35.69;41.54
49122;BME280;35529;44.342;25.944;2022-08-19T12:50:31;100167.56;;;35.67;37.19
49122;BME280;35529;44.342;25.944;2022-08-19T12:52:57;100157.84;;;35.77;37.08